Augusta Springs, Virginia
Current Conditions -  °F | °C
As of 6:35 AM on Thursday 27 Nov 2014 (Local Time) from KW13 Reporting Station
Overcast Overcast  
Wind Chill: 30°   Ceiling: 7000
Heat Index: 30°   Visibility: 4mi
Dew Point: 29°   Wind: 0mph
Humidity: 99%   Direction: NA
Pressure: 29.98"   Gusts: NA
Location:  38.1°N, 79.32°W
Report Text: KW13 271135Z AUTO 00000KT 4SM SCT050 BKN070 OVC085 M01/M01 A2998 RMK AO1 T10131015
Loading
Personal Weather Stations






























Interactive Weather Map New forecast layout! Learn more

10-Day Weather Forecast

Advertisements
Track Severe Weather on mobile